Aeroporto :
LOGIN :

Iscrizione | Disclaimer

   EN    FR    IT 

 










Sommario :    VFR   VFR Marginale   IFR   IFR Intensivo   IFR Molto Intensivo
Visibilità : 
Base nubi : 
>= 8 km
>= 3000ft
5 / 8 km
1000 / 3000 ft
1500m / 5 km
500 / 1000 ft
800 / 1500m
200 / 500 ft
< 800m
< 200 ft
Simboli :   Temporali  Nebbia  Neve Forte  Precipitazioni Forti  Vento > 20 kt
SIGMETs :   Varie  Temporali  Ghiacco  Turbolenza  Onda orograficha  Ceneri Vulcaniche







- Altitudine del aeroporto : 18 ft


LIPC - Cervia AFB Ravenna

ULTIMO METAR :
  • 201755Z 11007KT CAVOK 28/21 Q1016 RMK SKC VIS MIN 9999 WIND THR11 /////KT WIND THR29 11007KT BLU

METARs OBSOLETI :
  • 201655Z 11008KT CAVOK 29/21 Q1016 RMK SCT SCT200 VIS MIN 9999 WIND THR11 /////KT WIND THR29 12008KT BLU
  • 201555Z 10009KT CAVOK 30/20 Q1016 RMK BKN BKN200 VIS MIN 9999 WIND THR11 /////KT WIND THR29 11008KT BLU

TAF TAF LIPC
Valido dal 20 a 18 ore il 21 a 03 ore UTC


201700Z 2018/2103 11010KT CAVOK
BECMG 2100/2102 27010KT
Nessun NOTAM noto per questo aeroporto.



MetMap, La meteo Aeronautica in un colpo d'occhio ! - Copyright ORBIFLY Dicembre 2007 - Disclaimer

ORBIFLY MET'MAP TEAM :

Programmazione e sviluppo : Alexandra Zaïnal
Concezione e sviluppo : Baudouin d'Aumeries
Co-Programmazione e sviluppo : Marc-Olivier Méhu
Supporto tecnico e logistico : Manuel Goepfert
Aiuto per la traduzione : Arnaldo La Scala

Contatto : metmap@orbifly.com




FONTI E CREDITI :

   NOAA